createdAt,value
2022-08-16T00:29:33.026Z,19.20
2022-08-16T00:59:42.487Z,18.98
2022-08-16T01:30:20.161Z,18.59
2022-08-16T02:00:29.338Z,18.18
2022-08-16T02:30:36.960Z,17.97
2022-08-16T03:00:50.288Z,17.85
2022-08-16T03:30:55.301Z,17.69
2022-08-16T04:00:59.662Z,17.58
2022-08-16T04:31:03.787Z,17.42
2022-08-16T05:01:11.470Z,17.50
2022-08-16T05:31:16.901Z,17.53
2022-08-16T06:01:21.084Z,17.87
2022-08-16T06:31:25.714Z,18.23
2022-08-16T07:01:43.189Z,18.87
2022-08-16T07:31:50.428Z,19.66
2022-08-16T08:01:58.003Z,20.98
2022-08-16T08:32:03.017Z,24.83
2022-08-16T09:02:27.103Z,28.54
2022-08-16T09:32:31.453Z,30.58
2022-08-16T10:02:44.131Z,33.08
2022-08-16T10:32:48.600Z,32.87
2022-08-16T11:02:58.872Z,35.80
2022-08-16T11:33:19.333Z,34.88
2022-08-16T12:03:34.945Z,34.41
2022-08-16T12:33:44.758Z,35.55
2022-08-16T13:03:49.391Z,31.90
2022-08-16T13:34:00.404Z,30.46
2022-08-16T14:04:05.339Z,29.84
2022-08-16T14:34:11.156Z,29.53
2022-08-16T15:04:32.426Z,29.22
2022-08-16T15:34:44.631Z,30.79
2022-08-16T16:04:50.404Z,30.08
2022-08-16T16:34:58.846Z,29.55
2022-08-16T17:05:05.918Z,28.88
2022-08-16T17:35:18.416Z,27.85
2022-08-16T18:05:23.049Z,27.16
2022-08-16T18:35:27.241Z,26.10
2022-08-16T19:05:33.976Z,25.06
2022-08-16T19:35:41.013Z,24.25
2022-08-16T20:05:45.852Z,23.76
2022-08-16T20:35:50.692Z,23.30
2022-08-16T21:05:57.398Z,22.95
2022-08-16T21:36:01.470Z,22.68
2022-08-16T22:06:13.188Z,22.21
2022-08-16T22:36:18.672Z,21.71
2022-08-16T23:06:23.570Z,21.42
2022-08-16T23:36:27.571Z,21.20
